sensor_id;sensor_type;location;lat;lon;timestamp;pressure;altitude;pressure_sealevel;temperature;humidity
25947;BME280;13745;51.470;9.894;2023-04-04T00:01:26;100641.47;;;5.56;49.70
25947;BME280;13745;51.470;9.894;2023-04-04T00:04:13;100638.81;;;5.53;49.29
25947;BME280;13745;51.470;9.894;2023-04-04T00:06:58;100644.78;;;5.52;49.55
25947;BME280;13745;51.470;9.894;2023-04-04T00:09:43;100652.50;;;5.52;49.94
25947;BME280;13745;51.470;9.894;2023-04-04T00:12:28;100649.00;;;5.50;49.74
25947;BME280;13745;51.470;9.894;2023-04-04T00:15:13;100650.69;;;5.48;50.04
25947;BME280;13745;51.470;9.894;2023-04-04T00:17:58;100643.69;;;5.44;50.03
25947;BME280;13745;51.470;9.894;2023-04-04T00:20:44;100646.19;;;5.41;49.84
25947;BME280;13745;51.470;9.894;2023-04-04T00:23:30;100649.59;;;5.40;49.84
25947;BME280;13745;51.470;9.894;2023-04-04T00:26:15;100649.50;;;5.36;49.79
25947;BME280;13745;51.470;9.894;2023-04-04T00:29:00;100642.56;;;5.34;50.10
25947;BME280;13745;51.470;9.894;2023-04-04T00:31:46;100644.28;;;5.33;49.73
25947;BME280;13745;51.470;9.894;2023-04-04T00:34:31;100645.09;;;5.32;50.05
25947;BME280;13745;51.470;9.894;2023-04-04T00:37:17;100645.06;;;5.31;49.88
25947;BME280;13745;51.470;9.894;2023-04-04T00:40:03;100646.78;;;5.30;50.00
25947;BME280;13745;51.470;9.894;2023-04-04T00:42:48;100645.91;;;5.30;50.03
25947;BME280;13745;51.470;9.894;2023-04-04T00:45:34;100645.84;;;5.28;50.05
25947;BME280;13745;51.470;9.894;2023-04-04T00:48:19;100643.22;;;5.27;49.87
25947;BME280;13745;51.470;9.894;2023-04-04T00:51:07;100644.94;;;5.26;50.08
25947;BME280;13745;51.470;9.894;2023-04-04T00:53:53;100653.47;;;5.25;50.19
25947;BME280;13745;51.470;9.894;2023-04-04T00:56:39;100646.63;;;5.26;50.38
25947;BME280;13745;51.470;9.894;2023-04-04T00:59:25;100649.16;;;5.24;50.31
25947;BME280;13745;51.470;9.894;2023-04-04T01:02:10;100644.88;;;5.25;50.42
25947;BME280;13745;51.470;9.894;2023-04-04T01:04:55;100639.72;;;5.23;50.36
25947;BME280;13745;51.470;9.894;2023-04-04T01:07:41;100645.69;;;5.22;50.31
25947;BME280;13745;51.470;9.894;2023-04-04T01:10:28;100643.88;;;5.20;50.34
25947;BME280;13745;51.470;9.894;2023-04-04T01:13:14;100640.41;;;5.18;50.11
25947;BME280;13745;51.470;9.894;2023-04-04T01:15:59;100645.53;;;5.18;50.47
25947;BME280;13745;51.470;9.894;2023-04-04T01:18:45;100636.91;;;5.16;50.43
25947;BME280;13745;51.470;9.894;2023-04-04T01:21:33;100637.75;;;5.15;50.67
25947;BME280;13745;51.470;9.894;2023-04-04T01:24:20;100635.91;;;5.11;50.68
25947;BME280;13745;51.470;9.894;2023-04-04T01:27:13;100637.63;;;5.12;50.20
25947;BME280;13745;51.470;9.894;2023-04-04T01:30:07;100639.22;;;5.06;50.40
25947;BME280;13745;51.470;9.894;2023-04-04T01:32:55;100641.69;;;5.03;50.54
25947;BME280;13745;51.470;9.894;2023-04-04T01:35:48;100639.88;;;4.99;50.72
25947;BME280;13745;51.470;9.894;2023-04-04T01:38:41;100627.81;;;4.97;50.80
25947;BME280;13745;51.470;9.894;2023-04-04T01:41:32;100625.97;;;4.93;50.83
25947;BME280;13745;51.470;9.894;2023-04-04T01:44:20;100626.78;;;4.92;51.04
25947;BME280;13745;51.470;9.894;2023-04-04T01:47:05;100623.31;;;4.90;51.19
25947;BME280;13745;51.470;9.894;2023-04-04T01:49:51;100618.19;;;4.90;51.07
25947;BME280;13745;51.470;9.894;2023-04-04T01:52:38;100612.06;;;4.86;51.19
25947;BME280;13745;51.470;9.894;2023-04-04T01:55:23;100615.38;;;4.82;51.38
25947;BME280;13745;51.470;9.894;2023-04-04T01:58:09;100612.69;;;4.79;51.46
25947;BME280;13745;51.470;9.894;2023-04-04T02:00:56;100603.19;;;4.75;51.56
25947;BME280;13745;51.470;9.894;2023-04-04T02:03:41;100606.47;;;4.71;51.38
25947;BME280;13745;51.470;9.894;2023-04-04T02:06:27;100608.94;;;4.68;51.47
25947;BME280;13745;51.470;9.894;2023-04-04T02:09:12;100602.78;;;4.63;51.56
25947;BME280;13745;51.470;9.894;2023-04-04T02:11:58;100606.94;;;4.58;51.68
25947;BME280;13745;51.470;9.894;2023-04-04T02:14:43;100610.22;;;4.54;51.87
25947;BME280;13745;51.470;9.894;2023-04-04T02:17:30;100613.56;;;4.51;52.02
25947;BME280;13745;51.470;9.894;2023-04-04T02:20:15;100615.22;;;4.49;52.09
25947;BME280;13745;51.470;9.894;2023-04-04T02:23:01;100606.63;;;4.47;52.16
25947;BME280;13745;51.470;9.894;2023-04-04T02:25:48;100598.84;;;4.45;52.11
25947;BME280;13745;51.470;9.894;2023-04-04T02:28:34;100598.75;;;4.42;52.12
25947;BME280;13745;51.470;9.894;2023-04-04T02:31:19;100598.59;;;4.38;51.97
25947;BME280;13745;51.470;9.894;2023-04-04T02:34:06;100600.16;;;4.33;52.27
25947;BME280;13745;51.470;9.894;2023-04-04T02:36:51;100596.69;;;4.31;52.25
25947;BME280;13745;51.470;9.894;2023-04-04T02:39:38;100590.63;;;4.29;52.09
25947;BME280;13745;51.470;9.894;2023-04-04T02:42:23;100588.84;;;4.26;52.59
25947;BME280;13745;51.470;9.894;2023-04-04T02:45:09;100583.63;;;4.23;52.41
25947;BME280;13745;51.470;9.894;2023-04-04T02:47:57;100576.69;;;4.20;52.49
25947;BME280;13745;51.470;9.894;2023-04-04T02:50:54;100580.91;;;4.18;52.64
25947;BME280;13745;51.470;9.894;2023-04-04T02:53:39;100582.50;;;4.15;52.71
25947;BME280;13745;51.470;9.894;2023-04-04T02:56:36;100578.13;;;4.12;52.99
25947;BME280;13745;51.470;9.894;2023-04-04T02:59:22;100590.09;;;4.12;52.85
25947;BME280;13745;51.470;9.894;2023-04-04T03:02:07;100584.03;;;4.10;53.00
25947;BME280;13745;51.470;9.894;2023-04-04T03:04:52;100584.00;;;4.08;52.91
25947;BME280;13745;51.470;9.894;2023-04-04T03:07:38;100578.81;;;4.07;52.99
25947;BME280;13745;51.470;9.894;2023-04-04T03:10:24;100571.94;;;4.06;52.93
25947;BME280;13745;51.470;9.894;2023-04-04T03:13:09;100567.63;;;4.05;52.98
25947;BME280;13745;51.470;9.894;2023-04-04T03:15:59;100570.97;;;4.02;53.24
25947;BME280;13745;51.470;9.894;2023-04-04T03:18:47;100575.22;;;4.02;53.17
25947;BME280;13745;51.470;9.894;2023-04-04T03:21:35;100572.63;;;4.00;53.11
25947;BME280;13745;51.470;9.894;2023-04-04T03:24:22;100561.44;;;3.98;53.19
25947;BME280;13745;51.470;9.894;2023-04-04T03:27:08;100567.44;;;3.99;53.27
25947;BME280;13745;51.470;9.894;2023-04-04T03:29:53;100580.19;;;3.97;53.44
25947;BME280;13745;51.470;9.894;2023-04-04T03:32:39;100569.88;;;3.95;53.33
25947;BME280;13745;51.470;9.894;2023-04-04T03:35:24;100570.66;;;3.93;53.20
25947;BME280;13745;51.470;9.894;2023-04-04T03:38:10;100567.19;;;3.91;53.53
25947;BME280;13745;51.470;9.894;2023-04-04T03:41:01;100559.34;;;3.86;53.80
25947;BME280;13745;51.470;9.894;2023-04-04T03:43:48;100555.00;;;3.84;53.51
25947;BME280;13745;51.470;9.894;2023-04-04T03:46:32;100553.22;;;3.81;53.61
25947;BME280;13745;51.470;9.894;2023-04-04T03:49:18;100550.53;;;3.78;53.60
25947;BME280;13745;51.470;9.894;2023-04-04T03:52:04;100540.13;;;3.74;53.27
25947;BME280;13745;51.470;9.894;2023-04-04T03:54:49;100540.97;;;3.73;53.59
25947;BME280;13745;51.470;9.894;2023-04-04T03:57:36;100547.69;;;3.71;53.91
25947;BME280;13745;51.470;9.894;2023-04-04T04:00:25;100539.06;;;3.67;53.91
25947;BME280;13745;51.470;9.894;2023-04-04T04:03:10;100541.56;;;3.65;53.94
25947;BME280;13745;51.470;9.894;2023-04-04T04:05:55;100538.94;;;3.64;54.01
25947;BME280;13745;51.470;9.894;2023-04-04T04:08:40;100541.50;;;3.64;54.11
25947;BME280;13745;51.470;9.894;2023-04-04T04:11:25;100532.94;;;3.63;54.18
25947;BME280;13745;51.470;9.894;2023-04-04T04:14:11;100526.13;;;3.64;54.44
25947;BME280;13745;51.470;9.894;2023-04-04T04:16:57;100524.44;;;3.64;54.56
25947;BME280;13745;51.470;9.894;2023-04-04T04:19:42;100529.66;;;3.67;54.32
25947;BME280;13745;51.470;9.894;2023-04-04T04:22:28;100528.75;;;3.65;54.25
25947;BME280;13745;51.470;9.894;2023-04-04T04:25:13;100529.50;;;3.63;54.20
25947;BME280;13745;51.470;9.894;2023-04-04T04:28:00;100529.47;;;3.61;54.30
25947;BME280;13745;51.470;9.894;2023-04-04T04:30:47;100537.06;;;3.58;54.04
25947;BME280;13745;51.470;9.894;2023-04-04T04:33:35;100537.88;;;3.57;54.32
25947;BME280;13745;51.470;9.894;2023-04-04T04:36:22;100532.72;;;3.56;54.45
25947;BME280;13745;51.470;9.894;2023-04-04T04:39:22;100530.16;;;3.56;54.36
25947;BME280;13745;51.470;9.894;2023-04-04T04:42:34;100532.63;;;3.54;54.32
25947;BME280;13745;51.470;9.894;2023-04-04T04:45:20;100534.31;;;3.54;54.69
25947;BME280;13745;51.470;9.894;2023-04-04T04:48:12;100529.19;;;3.54;54.58
25947;BME280;13745;51.470;9.894;2023-04-04T04:51:04;100530.16;;;3.56;54.70
25947;BME280;13745;51.470;9.894;2023-04-04T04:54:09;100534.38;;;3.55;54.47
25947;BME280;13745;51.470;9.894;2023-04-04T04:56:56;100537.84;;;3.56;54.54
25947;BME280;13745;51.470;9.894;2023-04-04T04:59:43;100532.72;;;3.56;54.66
25947;BME280;13745;51.470;9.894;2023-04-04T05:02:31;100533.59;;;3.56;54.89
25947;BME280;13745;51.470;9.894;2023-04-04T05:05:18;100528.50;;;3.58;54.82
25947;BME280;13745;51.470;9.894;2023-04-04T05:08:04;100530.28;;;3.60;54.82
25947;BME280;13745;51.470;9.894;2023-04-04T05:10:51;100534.59;;;3.61;54.85
25947;BME280;13745;51.470;9.894;2023-04-04T05:13:38;100534.63;;;3.63;54.77
25947;BME280;13745;51.470;9.894;2023-04-04T05:16:24;100533.00;;;3.65;54.89
25947;BME280;13745;51.470;9.894;2023-04-04T05:19:13;100540.75;;;3.66;55.09
25947;BME280;13745;51.470;9.894;2023-04-04T05:22:05;100545.06;;;3.67;54.93
25947;BME280;13745;51.470;9.894;2023-04-04T05:24:56;100543.41;;;3.70;54.79
25947;BME280;13745;51.470;9.894;2023-04-04T05:27:45;100551.09;;;3.70;54.71
25947;BME280;13745;51.470;9.894;2023-04-04T05:30:31;100546.84;;;3.70;54.85
25947;BME280;13745;51.470;9.894;2023-04-04T05:33:31;100552.81;;;3.71;54.72
25947;BME280;13745;51.470;9.894;2023-04-04T05:36:24;100556.34;;;3.73;54.69
25947;BME280;13745;51.470;9.894;2023-04-04T05:39:16;100559.00;;;3.76;55.37
25947;BME280;13745;51.470;9.894;2023-04-04T05:42:11;100569.38;;;3.80;55.01
25947;BME280;13745;51.470;9.894;2023-04-04T05:45:01;100563.50;;;3.83;55.19
25947;BME280;13745;51.470;9.894;2023-04-04T05:47:47;100568.88;;;3.90;55.06
25947;BME280;13745;51.470;9.894;2023-04-04T05:50:32;100568.19;;;3.96;55.25
25947;BME280;13745;51.470;9.894;2023-04-04T05:53:20;100562.34;;;4.00;55.40
25947;BME280;13745;51.470;9.894;2023-04-04T05:56:09;100568.56;;;4.07;55.37
25947;BME280;13745;51.470;9.894;2023-04-04T05:58:54;100561.88;;;4.12;55.39
25947;BME280;13745;51.470;9.894;2023-04-04T06:01:40;100571.50;;;4.19;55.41
25947;BME280;13745;51.470;9.894;2023-04-04T06:04:30;100570.88;;;4.26;55.38
25947;BME280;13745;51.470;9.894;2023-04-04T06:07:17;100580.63;;;4.38;55.58
25947;BME280;13745;51.470;9.894;2023-04-04T06:10:03;100585.34;;;4.51;55.67
25947;BME280;13745;51.470;9.894;2023-04-04T06:12:51;100586.66;;;4.67;55.65
25947;BME280;13745;51.470;9.894;2023-04-04T06:15:36;100579.47;;;4.84;55.75
25947;BME280;13745;51.470;9.894;2023-04-04T06:18:21;100590.22;;;5.00;55.72
25947;BME280;13745;51.470;9.894;2023-04-04T06:21:06;100576.97;;;5.17;55.84
25947;BME280;13745;51.470;9.894;2023-04-04T06:23:53;100584.25;;;5.31;55.33
25947;BME280;13745;51.470;9.894;2023-04-04T06:26:38;100580.31;;;5.46;55.49
25947;BME280;13745;51.470;9.894;2023-04-04T06:29:25;100587.59;;;5.60;55.06
25947;BME280;13745;51.470;9.894;2023-04-04T06:32:13;100597.53;;;5.80;55.08
25947;BME280;13745;51.470;9.894;2023-04-04T06:35:00;100600.50;;;5.95;55.27
25947;BME280;13745;51.470;9.894;2023-04-04T06:37:57;100592.28;;;6.10;55.24
25947;BME280;13745;51.470;9.894;2023-04-04T06:40:44;100597.81;;;6.25;54.77
25947;BME280;13745;51.470;9.894;2023-04-04T06:43:30;100598.97;;;6.38;54.83
25947;BME280;13745;51.470;9.894;2023-04-04T06:46:16;100597.53;;;6.51;54.71
25947;BME280;13745;51.470;9.894;2023-04-04T06:49:01;100590.09;;;6.63;55.18
25947;BME280;13745;51.470;9.894;2023-04-04T06:51:46;100587.81;;;6.76;54.96
25947;BME280;13745;51.470;9.894;2023-04-04T06:54:33;100592.38;;;6.88;54.79
25947;BME280;13745;51.470;9.894;2023-04-04T06:57:18;100597.78;;;7.02;54.61
25947;BME280;13745;51.470;9.894;2023-04-04T07:00:05;100594.63;;;7.14;54.28
25947;BME280;13745;51.470;9.894;2023-04-04T07:02:57;100587.94;;;7.23;54.67
25947;BME280;13745;51.470;9.894;2023-04-04T07:05:42;100593.28;;;7.34;54.48
25947;BME280;13745;51.470;9.894;2023-04-04T07:08:28;100602.06;;;7.44;54.59
25947;BME280;13745;51.470;9.894;2023-04-04T07:11:13;100593.72;;;7.55;54.07
25947;BME280;13745;51.470;9.894;2023-04-04T07:13:58;100603.38;;;7.69;54.25
25947;BME280;13745;51.470;9.894;2023-04-04T07:16:43;100604.53;;;7.84;53.95
25947;BME280;13745;51.470;9.894;2023-04-04T07:19:29;100597.91;;;7.99;53.87
25947;BME280;13745;51.470;9.894;2023-04-04T07:22:15;100597.31;;;8.15;54.16
25947;BME280;13745;51.470;9.894;2023-04-04T07:25:00;100600.16;;;8.30;53.89
25947;BME280;13745;51.470;9.894;2023-04-04T07:27:45;100593.44;;;8.41;53.36
25947;BME280;13745;51.470;9.894;2023-04-04T07:30:30;100586.78;;;8.56;53.69
25947;BME280;13745;51.470;9.894;2023-04-04T07:33:16;100592.09;;;8.68;52.96
25947;BME280;13745;51.470;9.894;2023-04-04T07:36:02;100594.00;;;8.80;53.26
25947;BME280;13745;51.470;9.894;2023-04-04T07:38:47;100588.97;;;8.89;52.45
25947;BME280;13745;51.470;9.894;2023-04-04T07:41:32;100590.88;;;9.02;52.69
25947;BME280;13745;51.470;9.894;2023-04-04T07:44:18;100584.97;;;9.14;52.73
25947;BME280;13745;51.470;9.894;2023-04-04T07:47:03;100585.09;;;9.26;52.62
25947;BME280;13745;51.470;9.894;2023-04-04T07:49:48;100570.56;;;9.37;52.21
25947;BME280;13745;51.470;9.894;2023-04-04T07:52:34;100581.91;;;9.50;52.04
25947;BME280;13745;51.470;9.894;2023-04-04T07:55:19;100579.44;;;9.62;51.69
25947;BME280;13745;51.470;9.894;2023-04-04T07:58:08;100583.00;;;9.73;51.75
25947;BME280;13745;51.470;9.894;2023-04-04T08:00:53;100573.59;;;9.83;51.22
25947;BME280;13745;51.470;9.894;2023-04-04T08:03:40;100576.25;;;9.91;51.22
25947;BME280;13745;51.470;9.894;2023-04-04T08:06:25;100572.00;;;10.00;50.83
25947;BME280;13745;51.470;9.894;2023-04-04T08:09:11;100578.13;;;10.08;50.77
25947;BME280;13745;51.470;9.894;2023-04-04T08:11:56;100584.28;;;10.20;51.02
25947;BME280;13745;51.470;9.894;2023-04-04T08:14:41;100574.00;;;10.30;50.75
25947;BME280;13745;51.470;9.894;2023-04-04T08:17:26;100570.63;;;10.42;50.73
25947;BME280;13745;51.470;9.894;2023-04-04T08:20:12;100565.53;;;10.53;50.24
25947;BME280;13745;51.470;9.894;2023-04-04T08:22:57;100566.44;;;10.62;50.21
25947;BME280;13745;51.470;9.894;2023-04-04T08:25:45;100572.53;;;10.67;49.87
25947;BME280;13745;51.470;9.894;2023-04-04T08:28:29;100570.84;;;10.79;49.79
25947;BME280;13745;51.470;9.894;2023-04-04T08:31:14;100572.63;;;10.92;49.96
25947;BME280;13745;51.470;9.894;2023-04-04T08:34:00;100566.66;;;11.05;49.77
25947;BME280;13745;51.470;9.894;2023-04-04T08:36:45;100567.56;;;11.19;49.59
25947;BME280;13745;51.470;9.894;2023-04-04T08:39:30;100567.63;;;11.35;49.35
25947;BME280;13745;51.470;9.894;2023-04-04T08:42:17;100563.31;;;11.49;49.13
25947;BME280;13745;51.470;9.894;2023-04-04T08:45:04;100557.28;;;11.65;49.03
25947;BME280;13745;51.470;9.894;2023-04-04T08:47:53;100556.47;;;11.86;48.63
25947;BME280;13745;51.470;9.894;2023-04-04T08:50:39;100550.41;;;12.04;48.22
25947;BME280;13745;51.470;9.894;2023-04-04T08:53:26;100548.66;;;12.23;47.73
25947;BME280;13745;51.470;9.894;2023-04-04T08:56:12;100551.22;;;12.44;48.04
25947;BME280;13745;51.470;9.894;2023-04-04T08:58:59;100547.72;;;12.68;47.56
25947;BME280;13745;51.470;9.894;2023-04-04T09:01:44;100551.06;;;12.94;47.28
25947;BME280;13745;51.470;9.894;2023-04-04T09:04:30;100544.91;;;13.20;46.63
25947;BME280;13745;51.470;9.894;2023-04-04T09:07:16;100549.97;;;13.46;45.99
25947;BME280;13745;51.470;9.894;2023-04-04T09:10:02;100539.38;;;13.70;45.53
25947;BME280;13745;51.470;9.894;2023-04-04T09:12:49;100543.47;;;14.02;45.62
25947;BME280;13745;51.470;9.894;2023-04-04T09:15:37;100550.13;;;14.37;45.01
25947;BME280;13745;51.470;9.894;2023-04-04T09:18:24;100547.94;;;14.78;44.72
25947;BME280;13745;51.470;9.894;2023-04-04T09:21:10;100547.06;;;15.45;44.43
25947;BME280;13745;51.470;9.894;2023-04-04T09:23:59;100540.72;;;16.65;43.43
25947;BME280;13745;51.470;9.894;2023-04-04T09:26:48;100534.78;;;18.15;42.65
25947;BME280;13745;51.470;9.894;2023-04-04T09:29:34;100533.81;;;19.71;41.77
25947;BME280;13745;51.470;9.894;2023-04-04T09:32:21;100522.78;;;21.33;40.56
25947;BME280;13745;51.470;9.894;2023-04-04T09:35:08;100529.44;;;23.08;39.65
25947;BME280;13745;51.470;9.894;2023-04-04T09:37:55;100522.53;;;24.81;38.10
25947;BME280;13745;51.470;9.894;2023-04-04T09:40:41;100520.16;;;26.47;36.07
25947;BME280;13745;51.470;9.894;2023-04-04T09:43:29;100517.50;;;27.99;34.64
25947;BME280;13745;51.470;9.894;2023-04-04T09:46:17;100515.53;;;29.42;33.75
25947;BME280;13745;51.470;9.894;2023-04-04T09:49:04;100516.25;;;30.73;32.07
25947;BME280;13745;51.470;9.894;2023-04-04T09:51:53;100512.06;;;31.79;30.71
25947;BME280;13745;51.470;9.894;2023-04-04T09:54:38;100512.41;;;32.69;29.89
25947;BME280;13745;51.470;9.894;2023-04-04T09:57:25;100501.63;;;33.00;28.92
25947;BME280;13745;51.470;9.894;2023-04-04T10:00:11;100501.34;;;33.53;29.07
25947;BME280;13745;51.470;9.894;2023-04-04T10:03:01;100499.19;;;34.24;28.31
25947;BME280;13745;51.470;9.894;2023-04-04T10:05:54;100504.19;;;35.03;27.57
25947;BME280;13745;51.470;9.894;2023-04-04T10:08:39;100484.47;;;36.01;29.38
25947;BME280;13745;51.470;9.894;2023-04-04T10:11:30;100492.78;;;36.34;27.10
25947;BME280;13745;51.470;9.894;2023-04-04T10:14:16;100501.72;;;36.87;26.53
25947;BME280;13745;51.470;9.894;2023-04-04T10:17:06;100497.28;;;37.28;25.67
25947;BME280;13745;51.470;9.894;2023-04-04T10:19:52;100497.16;;;36.87;25.08
25947;BME280;13745;51.470;9.894;2023-04-04T10:22:41;100494.28;;;36.89;24.53
25947;BME280;13745;51.470;9.894;2023-04-04T10:25:28;100486.56;;;37.02;24.31
25947;BME280;13745;51.470;9.894;2023-04-04T10:28:13;100487.78;;;35.60;24.25
25947;BME280;13745;51.470;9.894;2023-04-04T10:31:03;100483.56;;;34.75;24.32
25947;BME280;13745;51.470;9.894;2023-04-04T10:33:55;100493.88;;;35.16;24.18
25947;BME280;13745;51.470;9.894;2023-04-04T10:36:48;100486.09;;;35.77;24.43
25947;BME280;13745;51.470;9.894;2023-04-04T10:39:38;100483.66;;;35.20;24.27
25947;BME280;13745;51.470;9.894;2023-04-04T10:42:27;100482.66;;;34.00;24.09
25947;BME280;13745;51.470;9.894;2023-04-04T10:45:16;100473.81;;;34.27;23.56
25947;BME280;13745;51.470;9.894;2023-04-04T10:48:03;100480.97;;;34.83;23.61
25947;BME280;13745;51.470;9.894;2023-04-04T10:50:48;100480.41;;;35.44;23.55
25947;BME280;13745;51.470;9.894;2023-04-04T10:53:34;100471.97;;;36.00;23.21
25947;BME280;13745;51.470;9.894;2023-04-04T10:56:21;100471.59;;;36.47;22.79
25947;BME280;13745;51.470;9.894;2023-04-04T10:59:13;100458.97;;;36.90;22.80
25947;BME280;13745;51.470;9.894;2023-04-04T11:02:01;100459.63;;;37.34;22.43
25947;BME280;13745;51.470;9.894;2023-04-04T11:04:46;100463.72;;;37.79;22.24
25947;BME280;13745;51.470;9.894;2023-04-04T11:07:32;100461.81;;;38.20;22.38
25947;BME280;13745;51.470;9.894;2023-04-04T11:10:21;100448.16;;;38.61;21.97
25947;BME280;13745;51.470;9.894;2023-04-04T11:13:10;100443.50;;;39.17;21.82
25947;BME280;13745;51.470;9.894;2023-04-04T11:15:57;100438.81;;;39.34;21.38
25947;BME280;13745;51.470;9.894;2023-04-04T11:18:45;100434.47;;;39.25;21.30
25947;BME280;13745;51.470;9.894;2023-04-04T11:21:31;100431.72;;;39.71;21.36
25947;BME280;13745;51.470;9.894;2023-04-04T11:24:17;100432.38;;;40.10;20.94
25947;BME280;13745;51.470;9.894;2023-04-04T11:27:04;100421.34;;;40.27;21.16
25947;BME280;13745;51.470;9.894;2023-04-04T11:29:52;100425.19;;;40.18;20.93
25947;BME280;13745;51.470;9.894;2023-04-04T11:32:40;100413.28;;;39.66;20.81
25947;BME280;13745;51.470;9.894;2023-04-04T11:35:27;100424.34;;;38.80;21.05
25947;BME280;13745;51.470;9.894;2023-04-04T11:38:13;100422.41;;;37.53;21.77
25947;BME280;13745;51.470;9.894;2023-04-04T11:40:59;100423.19;;;36.28;22.20
25947;BME280;13745;51.470;9.894;2023-04-04T11:43:44;100417.69;;;35.14;22.51
25947;BME280;13745;51.470;9.894;2023-04-04T11:46:31;100422.00;;;34.05;22.83
25947;BME280;13745;51.470;9.894;2023-04-04T11:49:16;100419.59;;;33.06;23.13
25947;BME280;13745;51.470;9.894;2023-04-04T11:52:06;100408.47;;;32.09;23.50
25947;BME280;13745;51.470;9.894;2023-04-04T11:54:52;100410.84;;;31.17;24.21
25947;BME280;13745;51.470;9.894;2023-04-04T11:57:40;100406.69;;;30.25;24.26
25947;BME280;13745;51.470;9.894;2023-04-04T12:00:29;100409.78;;;29.50;24.74
25947;BME280;13745;51.470;9.894;2023-04-04T12:03:16;100402.97;;;28.86;25.10
25947;BME280;13745;51.470;9.894;2023-04-04T12:06:01;100407.22;;;28.26;24.59
25947;BME280;13745;51.470;9.894;2023-04-04T12:08:47;100389.44;;;27.49;24.96
25947;BME280;13745;51.470;9.894;2023-04-04T12:11:33;100401.63;;;26.84;25.57
25947;BME280;13745;51.470;9.894;2023-04-04T12:14:19;100394.84;;;26.23;26.21
25947;BME280;13745;51.470;9.894;2023-04-04T12:17:05;100390.19;;;25.68;26.32
25947;BME280;13745;51.470;9.894;2023-04-04T12:19:52;100394.25;;;25.14;26.75
25947;BME280;13745;51.470;9.894;2023-04-04T12:22:37;100381.94;;;24.65;26.81
25947;BME280;13745;51.470;9.894;2023-04-04T12:25:22;100389.94;;;24.15;27.51
25947;BME280;13745;51.470;9.894;2023-04-04T12:28:08;100382.72;;;23.68;27.55
25947;BME280;13745;51.470;9.894;2023-04-04T12:30:54;100382.81;;;23.31;27.55
25947;BME280;13745;51.470;9.894;2023-04-04T12:33:40;100378.25;;;22.98;27.72
25947;BME280;13745;51.470;9.894;2023-04-04T12:36:28;100356.88;;;22.65;28.45
25947;BME280;13745;51.470;9.894;2023-04-04T12:39:15;100360.81;;;22.37;28.87
25947;BME280;13745;51.470;9.894;2023-04-04T12:42:01;100352.03;;;22.18;29.05
25947;BME280;13745;51.470;9.894;2023-04-04T12:44:48;100348.28;;;22.03;28.75
25947;BME280;13745;51.470;9.894;2023-04-04T12:47:36;100350.72;;;21.87;29.36
25947;BME280;13745;51.470;9.894;2023-04-04T12:50:22;100356.75;;;21.71;29.41
25947;BME280;13745;51.470;9.894;2023-04-04T12:53:09;100356.63;;;21.53;28.91
25947;BME280;13745;51.470;9.894;2023-04-04T12:55:55;100348.50;;;21.38;28.81
25947;BME280;13745;51.470;9.894;2023-04-04T12:58:45;100344.63;;;21.24;29.46
25947;BME280;13745;51.470;9.894;2023-04-04T13:01:30;100349.56;;;21.12;29.81
25947;BME280;13745;51.470;9.894;2023-04-04T13:04:16;100346.44;;;21.02;29.98
25947;BME280;13745;51.470;9.894;2023-04-04T13:07:02;100331.88;;;20.92;29.58
25947;BME280;13745;51.470;9.894;2023-04-04T13:09:53;100328.69;;;20.84;30.18
25947;BME280;13745;51.470;9.894;2023-04-04T13:12:52;100337.84;;;20.75;30.00
25947;BME280;13745;51.470;9.894;2023-04-04T13:15:49;100324.59;;;20.55;29.77
25947;BME280;13745;51.470;9.894;2023-04-04T13:18:36;100323.50;;;20.37;29.83
25947;BME280;13745;51.470;9.894;2023-04-04T13:21:21;100325.88;;;20.21;30.16
25947;BME280;13745;51.470;9.894;2023-04-04T13:24:07;100323.69;;;20.09;30.40
25947;BME280;13745;51.470;9.894;2023-04-04T13:26:53;100314.53;;;19.96;30.61
25947;BME280;13745;51.470;9.894;2023-04-04T13:29:39;100311.59;;;19.80;30.46
25947;BME280;13745;51.470;9.894;2023-04-04T13:32:24;100307.81;;;19.63;30.57
25947;BME280;13745;51.470;9.894;2023-04-04T13:35:11;100303.16;;;19.45;30.62
25947;BME280;13745;51.470;9.894;2023-04-04T13:37:57;100297.66;;;19.26;30.68
25947;BME280;13745;51.470;9.894;2023-04-04T13:40:42;100297.47;;;19.06;30.97
25947;BME280;13745;51.470;9.894;2023-04-04T13:43:28;100290.22;;;18.88;31.15
25947;BME280;13745;51.470;9.894;2023-04-04T13:46:13;100290.75;;;18.71;31.37
25947;BME280;13745;51.470;9.894;2023-04-04T13:48:59;100291.09;;;18.59;31.50
25947;BME280;13745;51.470;9.894;2023-04-04T13:51:44;100283.47;;;18.51;31.80
25947;BME280;13745;51.470;9.894;2023-04-04T13:54:30;100284.47;;;18.47;31.64
25947;BME280;13745;51.470;9.894;2023-04-04T13:57:15;100277.53;;;18.44;32.15
25947;BME280;13745;51.470;9.894;2023-04-04T14:00:02;100280.38;;;18.38;32.29
25947;BME280;13745;51.470;9.894;2023-04-04T14:02:53;100275.25;;;18.34;32.05
25947;BME280;13745;51.470;9.894;2023-04-04T14:05:39;100275.44;;;18.28;32.46
25947;BME280;13745;51.470;9.894;2023-04-04T14:08:24;100278.22;;;18.23;32.49
25947;BME280;13745;51.470;9.894;2023-04-04T14:11:09;100278.38;;;18.17;32.33
25947;BME280;13745;51.470;9.894;2023-04-04T14:13:54;100270.75;;;18.09;33.00
25947;BME280;13745;51.470;9.894;2023-04-04T14:16:40;100269.41;;;17.96;32.73
25947;BME280;13745;51.470;9.894;2023-04-04T14:19:26;100272.41;;;17.82;32.64
25947;BME280;13745;51.470;9.894;2023-04-04T14:22:10;100263.97;;;17.69;32.88
25947;BME280;13745;51.470;9.894;2023-04-04T14:24:56;100268.72;;;17.57;33.16
25947;BME280;13745;51.470;9.894;2023-04-04T14:27:40;100276.06;;;17.44;33.21
25947;BME280;13745;51.470;9.894;2023-04-04T14:30:26;100261.56;;;17.31;33.44
25947;BME280;13745;51.470;9.894;2023-04-04T14:33:12;100261.78;;;17.23;33.43
25947;BME280;13745;51.470;9.894;2023-04-04T14:35:57;100269.78;;;17.17;33.45
25947;BME280;13745;51.470;9.894;2023-04-04T14:38:42;100259.41;;;17.12;33.97